Lakefront Airport
KNEW : now visible

Airfield :











YOU CAN JOIN US ON...

 
LOGIN :

Register | Disclaimer

   EN    FR    IT 

 









Legend :    VFR   Marginal VFR   IFR   Intensive IFR   Very Intensive IFR
Visi :
Ceiling :
>= 8 km
>= 3000ft
5 to 8 km
1000 to 3000 ft
1500m to 5 km
500 to 1000 ft
800 to 1500m
200 to 500 ft
< 800m
< 200 ft
Symbols :   Thunderstorms  Fog  Heavy snow  Heavy precipitations  Wind > 20 kt






- Airport Elevation : 8 ft


KNEW - Lakefront

CURRENT METAR :
  • 271810Z 01008KT 10SM OVC009 13/10 A3004 RMK AO2 T01280100

EXPIRED METARs :
  • 271753Z 01008KT 10SM OVC010 13/10 A3004 RMK AO2 CIG 008V012 SLP166 T01330100 10133 20122 50002
  • 271653Z 35009KT 10SM OVC011 13/10 A3006 RMK AO2 SLP172 T01330100
  • 271553Z 36011KT 10SM OVC011 13/10 A3005 RMK AO2 SLP170 T01330100

TAF KNEW
Valid from the 27 at 18:00 until the 28 at 18:00 UTC


271744Z 2718/2818 35009KT P6SM OVC015
FM280200 00000KT P6SM FEW015
FM281500 10009KT P6SM OVC250



MET'MAP, your aeronautical weather chart ! - Copyright ORBIFLY December 2007 - Disclaimer

ORBIFLY MET'MAP TEAM :

Programming & Development : Alexandra Zaïnal
Concept & original design : Baudouin d'Aumeries
Assistance for programming : Marc-Olivier Méhu
Technical & hardware support : Manuel Goepfert

Contact : metmap@orbifly.com




SOURCES & CREDITS :

   NOAA       Earth
Advisory